createdAt,value
2023-07-29T00:02:14.897Z,17.13
2023-07-29T00:07:16.959Z,17.23
2023-07-29T00:12:18.800Z,17.34
2023-07-29T00:17:21.588Z,17.43
2023-07-29T00:22:23.795Z,17.50
2023-07-29T00:27:26.047Z,17.58
2023-07-29T00:32:32.202Z,17.69
2023-07-29T00:37:34.243Z,17.79
2023-07-29T00:42:36.258Z,17.88
2023-07-29T00:47:39.496Z,18.00
2023-07-29T00:52:42.497Z,18.02
2023-07-29T00:57:49.241Z,18.03
2023-07-29T01:02:51.464Z,18.08
2023-07-29T01:08:02.726Z,18.12
2023-07-29T01:13:12.166Z,18.14
2023-07-29T01:18:22.348Z,18.09
2023-07-29T01:23:30.243Z,17.99
2023-07-29T01:28:33.712Z,17.88
2023-07-29T01:33:41.567Z,17.83
2023-07-29T01:38:45.629Z,17.79
2023-07-29T01:43:48.092Z,17.78
2023-07-29T01:48:50.086Z,17.77
2023-07-29T01:53:52.139Z,17.79
2023-07-29T01:58:53.962Z,17.74
2023-07-29T02:03:56.931Z,17.72
2023-07-29T02:08:59.320Z,17.72
2023-07-29T02:14:01.529Z,17.67
2023-07-29T02:19:04.463Z,17.68
2023-07-29T02:24:06.298Z,17.60
2023-07-29T02:29:08.265Z,17.47
2023-07-29T02:34:10.454Z,17.36
2023-07-29T02:39:12.484Z,17.24
2023-07-29T02:44:14.433Z,17.20
2023-07-29T02:49:16.299Z,17.11
2023-07-29T02:54:18.174Z,16.97
2023-07-29T02:59:19.999Z,16.88
2023-07-29T03:04:21.848Z,16.82
2023-07-29T03:09:24.018Z,16.78
2023-07-29T03:14:26.157Z,16.68
2023-07-29T03:19:28.092Z,16.63
2023-07-29T03:24:30.658Z,16.65
2023-07-29T03:29:32.869Z,16.71
2023-07-29T03:34:35.385Z,16.78
2023-07-29T03:39:37.904Z,16.87
2023-07-29T03:44:43.169Z,16.98
2023-07-29T03:49:45.099Z,17.10
2023-07-29T03:54:47.593Z,17.32
2023-07-29T03:59:49.838Z,17.61
2023-07-29T04:04:51.981Z,17.94
2023-07-29T04:09:54.266Z,18.17
2023-07-29T04:14:56.704Z,18.38
2023-07-29T04:19:58.577Z,18.54
2023-07-29T04:25:06.042Z,18.71
2023-07-29T04:30:08.253Z,18.93
2023-07-29T04:35:10.354Z,19.11
2023-07-29T04:40:12.652Z,19.28
2023-07-29T04:45:14.789Z,19.48
2023-07-29T04:50:16.883Z,19.68
2023-07-29T04:55:18.978Z,19.90
2023-07-29T05:00:20.952Z,20.06
2023-07-29T05:05:23.123Z,20.10
2023-07-29T05:10:25.310Z,20.25
2023-07-29T05:15:27.166Z,20.42
2023-07-29T05:20:29.029Z,20.55
2023-07-29T05:25:30.862Z,20.72
2023-07-29T05:30:35.128Z,20.93
2023-07-29T05:35:36.996Z,21.11
2023-07-29T05:40:39.176Z,21.29
2023-07-29T05:45:41.545Z,21.57
2023-07-29T05:50:43.560Z,21.82
2023-07-29T05:55:45.552Z,22.04
2023-07-29T06:00:47.552Z,22.13
2023-07-29T06:05:51.788Z,22.36
2023-07-29T06:10:55.397Z,22.71
2023-07-29T06:15:57.357Z,23.02
2023-07-29T06:20:59.316Z,23.25
2023-07-29T06:26:01.810Z,23.53
2023-07-29T06:31:03.727Z,23.85
2023-07-29T06:36:05.776Z,24.09
2023-07-29T06:41:07.649Z,24.11
2023-07-29T06:46:10.104Z,24.08
2023-07-29T06:51:11.974Z,23.94
2023-07-29T06:56:13.902Z,23.79
2023-07-29T07:01:16.128Z,23.85
2023-07-29T07:06:18.015Z,24.07
2023-07-29T07:11:20.406Z,24.41
2023-07-29T07:16:22.295Z,24.86
2023-07-29T07:21:24.157Z,25.41
2023-07-29T07:26:26.056Z,25.98
2023-07-29T07:31:28.062Z,26.35
2023-07-29T07:36:30.575Z,26.60
2023-07-29T07:41:32.384Z,26.68
2023-07-29T07:46:34.518Z,26.73
2023-07-29T07:51:36.833Z,26.73
2023-07-29T07:56:38.894Z,26.78
2023-07-29T08:01:41.176Z,27.04
2023-07-29T08:06:43.581Z,27.34
2023-07-29T08:11:45.929Z,27.63
2023-07-29T08:16:48.020Z,27.88
2023-07-29T08:21:50.086Z,28.17
2023-07-29T08:26:51.866Z,28.56
2023-07-29T08:31:53.790Z,28.84
2023-07-29T08:36:55.831Z,28.93
2023-07-29T08:42:08.476Z,29.07
2023-07-29T08:47:11.348Z,28.93
2023-07-29T08:52:13.726Z,28.74
2023-07-29T08:57:16.216Z,28.74
2023-07-29T09:02:19.371Z,28.64
2023-07-29T09:07:22.264Z,28.65
2023-07-29T09:12:24.334Z,28.83
2023-07-29T09:17:26.474Z,29.08
2023-07-29T09:22:28.872Z,29.34
2023-07-29T09:27:32.999Z,29.65
2023-07-29T09:32:34.950Z,29.80
2023-07-29T09:37:37.153Z,30.01
2023-07-29T09:42:39.094Z,29.86
2023-07-29T09:47:42.946Z,29.85
2023-07-29T09:52:46.689Z,29.79
2023-07-29T09:57:48.699Z,29.69
2023-07-29T10:02:51.099Z,29.73
2023-07-29T10:07:54.731Z,29.56
2023-07-29T10:12:57.877Z,29.42
2023-07-29T10:18:00.693Z,29.38
2023-07-29T10:23:08.457Z,29.20
2023-07-29T10:28:13.802Z,28.97
2023-07-29T10:33:15.804Z,28.88
2023-07-29T10:38:18.826Z,28.82
2023-07-29T10:43:36.357Z,28.69
2023-07-29T10:48:42.867Z,28.69
2023-07-29T10:53:44.802Z,28.70
2023-07-29T10:58:46.676Z,28.52
2023-07-29T11:04:20.387Z,28.36
2023-07-29T11:09:42.637Z,28.49
2023-07-29T11:14:44.652Z,28.48
2023-07-29T11:19:47.575Z,28.34
2023-07-29T11:24:49.554Z,28.27
2023-07-29T11:29:51.259Z,28.29
2023-07-29T11:34:53.313Z,28.36
2023-07-29T11:39:55.137Z,28.44
2023-07-29T11:45:00.339Z,28.29
2023-07-29T11:50:03.521Z,28.33
2023-07-29T11:55:06.775Z,28.38
2023-07-29T12:00:15.969Z,28.33
2023-07-29T12:05:22.765Z,27.94
2023-07-29T12:10:25.640Z,27.63
2023-07-29T12:15:29.260Z,27.55
2023-07-29T12:20:31.593Z,27.63
2023-07-29T12:25:33.689Z,27.98
2023-07-29T12:30:35.931Z,28.40
2023-07-29T12:35:39.033Z,28.77
2023-07-29T12:40:41.858Z,29.20
2023-07-29T12:45:45.118Z,29.33
2023-07-29T12:50:47.361Z,29.27
2023-07-29T12:55:49.187Z,29.16
2023-07-29T13:00:51.467Z,29.31
2023-07-29T13:05:53.588Z,29.38
2023-07-29T13:10:55.482Z,29.36
2023-07-29T13:16:00.664Z,29.38
2023-07-29T13:21:04.485Z,29.35
2023-07-29T13:26:06.329Z,29.50
2023-07-29T13:31:08.180Z,29.75
2023-07-29T13:36:10.045Z,29.89
2023-07-29T13:41:11.784Z,30.06
2023-07-29T13:46:13.664Z,30.17
2023-07-29T13:51:15.512Z,30.16
2023-07-29T13:56:17.387Z,30.16
2023-07-29T14:01:19.385Z,30.39
2023-07-29T14:06:28.604Z,30.40
2023-07-29T14:11:37.871Z,30.42
2023-07-29T14:16:40.586Z,30.57
2023-07-29T14:21:42.601Z,30.71
2023-07-29T14:26:44.390Z,30.74
2023-07-29T14:31:46.490Z,30.62
2023-07-29T14:36:48.516Z,30.53
2023-07-29T14:41:50.522Z,30.52
2023-07-29T14:46:52.545Z,30.59
2023-07-29T14:51:55.218Z,30.62
2023-07-29T14:56:59.665Z,30.66
2023-07-29T15:02:01.654Z,30.81
2023-07-29T15:07:04.121Z,30.92
2023-07-29T15:12:06.602Z,30.93
2023-07-29T15:17:08.447Z,31.06
2023-07-29T15:22:10.446Z,31.30
2023-07-29T15:27:12.257Z,31.45
2023-07-29T15:32:14.120Z,30.96
2023-07-29T15:37:16.477Z,30.09
2023-07-29T15:42:18.398Z,29.36
2023-07-29T15:47:20.306Z,28.77
2023-07-29T15:52:22.222Z,28.42
2023-07-29T15:57:24.508Z,28.13
2023-07-29T16:02:27.560Z,27.88
2023-07-29T16:07:29.593Z,27.61
2023-07-29T16:12:31.731Z,27.28
2023-07-29T16:17:33.630Z,26.97
2023-07-29T16:22:35.877Z,26.66
2023-07-29T16:27:37.876Z,26.40
2023-07-29T16:32:39.918Z,26.20
2023-07-29T16:37:41.712Z,25.93
2023-07-29T16:42:43.962Z,25.38
2023-07-29T16:47:45.837Z,24.76
2023-07-29T16:52:50.161Z,24.20
2023-07-29T16:57:52.081Z,23.74
2023-07-29T17:02:54.066Z,23.29
2023-07-29T17:07:56.243Z,22.91
2023-07-29T17:12:58.152Z,22.73
2023-07-29T17:18:00.002Z,22.71
2023-07-29T17:23:01.885Z,22.57
2023-07-29T17:28:05.388Z,22.39
2023-07-29T17:33:07.375Z,22.25
2023-07-29T17:38:13.207Z,22.06
2023-07-29T17:43:15.655Z,21.95
2023-07-29T17:48:17.558Z,21.98
2023-07-29T17:53:19.786Z,22.05
2023-07-29T17:58:21.718Z,22.17
2023-07-29T18:03:23.626Z,22.29
2023-07-29T18:08:26.281Z,22.34
2023-07-29T18:13:28.066Z,22.33
2023-07-29T18:18:30.499Z,22.26
2023-07-29T18:23:33.038Z,22.10
2023-07-29T18:28:34.955Z,21.88
2023-07-29T18:33:37.430Z,21.63
2023-07-29T18:38:39.302Z,21.38
2023-07-29T18:43:41.164Z,21.10
2023-07-29T18:48:42.962Z,20.83
2023-07-29T18:53:44.750Z,20.62
2023-07-29T18:58:46.743Z,20.41
2023-07-29T19:03:49.699Z,20.19
2023-07-29T19:08:52.336Z,19.98
2023-07-29T19:13:55.520Z,19.79
2023-07-29T19:18:57.603Z,19.61
2023-07-29T19:24:00.138Z,19.46
2023-07-29T19:29:01.958Z,19.36
2023-07-29T19:34:03.802Z,19.22
2023-07-29T19:39:05.677Z,19.09
2023-07-29T19:44:20.863Z,19.01
2023-07-29T19:49:24.730Z,18.94
2023-07-29T19:54:26.553Z,18.87
2023-07-29T19:59:37.956Z,18.77
2023-07-29T20:04:40.434Z,18.70
2023-07-29T20:09:42.458Z,18.65
2023-07-29T20:14:44.818Z,18.64
2023-07-29T20:19:46.797Z,18.62
2023-07-29T20:24:48.755Z,18.59
2023-07-29T20:29:50.692Z,18.56
2023-07-29T20:34:53.310Z,18.52
2023-07-29T20:39:56.022Z,18.55
2023-07-29T20:44:57.961Z,18.55
2023-07-29T20:49:59.730Z,18.52
2023-07-29T20:55:01.513Z,18.50
2023-07-29T21:00:04.951Z,18.48
2023-07-29T21:05:07.333Z,18.47
2023-07-29T21:10:14.153Z,18.44
2023-07-29T21:15:16.101Z,18.41
2023-07-29T21:20:17.913Z,18.41
2023-07-29T21:25:20.711Z,18.43
2023-07-29T21:30:23.303Z,18.46
2023-07-29T21:35:28.769Z,18.47
2023-07-29T21:40:51.595Z,18.47
2023-07-29T21:45:57.973Z,18.47
2023-07-29T21:51:00.149Z,18.48
2023-07-29T21:56:03.465Z,18.51
2023-07-29T22:01:05.578Z,18.52
2023-07-29T22:06:07.645Z,18.50
2023-07-29T22:11:13.158Z,18.52
2023-07-29T22:16:15.023Z,18.63
2023-07-29T22:21:16.939Z,18.80
2023-07-29T22:26:18.889Z,18.91
2023-07-29T22:31:20.875Z,19.00
2023-07-29T22:36:22.830Z,19.10
2023-07-29T22:41:24.830Z,19.21
2023-07-29T22:46:26.922Z,19.30
2023-07-29T22:51:28.823Z,19.37
2023-07-29T22:56:30.839Z,19.40
2023-07-29T23:01:32.777Z,19.43
2023-07-29T23:06:34.837Z,19.47
2023-07-29T23:11:37.160Z,19.51
2023-07-29T23:16:39.245Z,19.53
2023-07-29T23:21:41.201Z,19.53
2023-07-29T23:26:44.194Z,19.56
2023-07-29T23:31:46.533Z,19.62
2023-07-29T23:37:08.364Z,19.63
2023-07-29T23:42:23.883Z,19.65
2023-07-29T23:47:26.477Z,19.66
2023-07-29T23:52:28.390Z,19.64
2023-07-29T23:57:30.673Z,19.61
